Terminal Aerodrome Forecast
Issued by NWS

Home | Current Version | Previous Version | Text Only | Print | Product List | Glossary On
Versions: 1 2 3 4 5 6 7 8 9 10 11 12 13 14 15
000
FTUS42 KTBW 201100
TAFRSW
TAF
KRSW 201128Z 2012/2112 07005KT P6SM FEW250
     FM201500 13008KT P6SM FEW025 FEW250
     FM201800 18007KT P6SM SCT035 SCT250
     FM202100 22006KT P6SM SCT045 SCT250
     FM210100 VRB03KT P6SM SCT250=

USA.gov is the U.S. government's official web portal to all federal, state and local government web resources and services.